Time;durP1;ratioP1;P1;durP2;ratioP2;P2;SDS_P1;SDS_P2;PMS_P1;PMS_P2;Temp;Humidity;BMP_temperature;BMP_pressure;BME280_temperature;BME280_humidity;BME280_pressure;Samples;Min_cycle;Max_cycle;Signal;HPM_P1;HPM_P2
2022/02/01 00:05:45;;;;;;;;;;;;;;;5.47;58.80;98871.06;4399141;32;20405;-79
2022/02/01 00:09:07;;;;;;;;;;;;;;;5.85;57.65;98872.81;4396597;32;34838;-79
2022/02/01 00:11:14;;;;;;;;;;;;;;;5.87;57.32;98865.59;4398173;32;35362;-79
2022/02/01 00:35:46;;;;;;;;;;;;;;;5.31;59.30;98878.63;4418244;32;33678;-81
2022/02/01 00:38:21;;;;;;;;;;;;;;;5.48;58.69;98876.19;4411910;32;33057;-81
2022/02/01 00:40:55;;;;;;;;;;;;;;;5.76;57.80;98870.12;4399834;32;33265;-81
2022/02/01 00:43:27;;;;;;;;;;;;;;;5.77;57.51;98869.19;4418353;32;34905;-80
2022/02/01 00:45:55;;;;;;;;;;;;;;;5.93;56.91;98872.13;4399957;32;35337;-81
2022/02/01 00:48:25;;;;;;;;;;;;;;;5.95;56.75;98878.13;4392272;32;32014;-81
2022/02/01 00:50:53;;;;;;;;;;;;;;;6.08;56.36;98881.31;4425501;32;34240;-82
2022/02/01 00:53:42;;;;;;;;;;;;;;;5.94;56.57;98885.19;4406399;32;34968;-81
2022/02/01 00:56:14;;;;;;;;;;;;;;;5.89;56.99;98881.31;4404697;32;34137;-81
2022/02/01 00:58:46;;;;;;;;;;;;;;;5.70;57.52;98887.34;4403968;32;32035;-81
2022/02/01 01:01:14;;;;;;;;;;;;;;;5.37;58.45;98884.19;4416827;32;33816;-81
2022/02/01 01:03:47;;;;;;;;;;;;;;;5.47;58.14;98883.28;4418129;32;34903;-81
2022/02/01 01:06:15;;;;;;;;;;;;;;;5.63;57.59;98882.75;4417674;32;35234;-81
2022/02/01 01:08:43;;;;;;;;;;;;;;;5.49;57.99;98883.97;4424933;32;34360;-81
2022/02/01 01:11:13;;;;;;;;;;;;;;;5.58;57.46;98877.06;4428380;32;33664;-81
2022/02/01 01:14:09;;;;;;;;;;;;;;;5.68;56.97;98867.38;4415058;32;34729;-81
2022/02/01 01:38:56;;;;;;;;;;;;;;;5.92;55.78;98847.56;4404883;32;35697;-81
2022/02/01 01:44:22;;;;;;;;;;;;;;;5.92;56.26;98847.56;4428535;32;33688;-81
2022/02/01 01:55:18;;;;;;;;;;;;;;;5.89;57.40;98845.16;4417558;32;34118;-82
2022/02/01 01:57:46;;;;;;;;;;;;;;;5.96;57.39;98837.56;4408884;32;34654;-81
2022/02/01 02:00:33;;;;;;;;;;;;;;;5.96;57.25;98850.75;4415430;32;34732;-81
2022/02/01 02:03:10;;;;;;;;;;;;;;;5.98;57.23;98851.44;4414962;32;32919;-81
2022/02/01 02:05:38;;;;;;;;;;;;;;;5.93;57.27;98849.22;4412217;32;34784;-81
2022/02/01 02:08:06;;;;;;;;;;;;;;;5.95;57.55;98857.81;4415249;32;35199;-81
2022/02/01 02:10:46;;;;;;;;;;;;;;;5.92;57.94;98857.25;4410147;32;33155;-81
2022/02/01 02:16:00;;;;;;;;;;;;;;;5.96;57.93;98863.97;4393107;32;33954;-81
2022/02/01 02:18:34;;;;;;;;;;;;;;;5.93;57.98;98866.84;4427945;32;35735;-81
2022/02/01 02:21:05;;;;;;;;;;;;;;;5.72;58.68;98855.56;4412976;32;33345;-81
2022/02/01 02:23:33;;;;;;;;;;;;;;;5.64;59.17;98861.50;4423362;32;32601;-81
2022/02/01 02:26:05;;;;;;;;;;;;;;;5.58;59.11;98858.59;4424586;32;33051;-81
2022/02/01 02:28:34;;;;;;;;;;;;;;;5.71;59.02;98867.91;4412579;32;35265;-81
2022/02/01 02:31:02;;;;;;;;;;;;;;;5.53;59.39;98868.69;4425424;32;33421;-81
2022/02/01 02:33:32;;;;;;;;;;;;;;;5.60;59.57;98875.13;4389478;32;32717;-81
2022/02/01 02:36:21;;;;;;;;;;;;;;;5.78;59.15;98871.66;4425735;32;34137;-81
2022/02/01 02:39:07;;;;;;;;;;;;;;;5.63;59.85;98870.41;4415961;32;34408;-81
2022/02/01 02:41:50;;;;;;;;;;;;;;;5.84;59.26;98873.81;4390220;32;33659;-81
2022/02/01 02:47:07;;;;;;;;;;;;;;;5.86;59.07;98879.75;4413916;32;32932;-81
2022/02/01 02:49:36;;;;;;;;;;;;;;;5.76;59.40;98884.16;4413001;32;33772;-81
2022/02/01 02:52:09;;;;;;;;;;;;;;;6.10;58.48;98887.28;4387696;32;33556;-81
2022/02/01 02:54:38;;;;;;;;;;;;;;;6.06;58.69;98885.91;4427264;32;31599;-82
2022/02/01 02:57:11;;;;;;;;;;;;;;;6.14;58.32;98888.69;4412382;32;34292;-81
2022/02/01 02:59:39;;;;;;;;;;;;;;;6.22;58.10;98892.31;4399962;32;34294;-81
2022/02/01 03:02:09;;;;;;;;;;;;;;;6.15;58.94;98893.81;4412670;32;34311;-82
2022/02/01 03:04:37;;;;;;;;;;;;;;;5.99;59.75;98898.00;4426941;32;33379;-82
2022/02/01 03:07:07;;;;;;;;;;;;;;;6.13;59.38;98908.12;4414524;32;34022;-82
2022/02/01 03:09:40;;;;;;;;;;;;;;;6.03;59.59;98905.50;4398851;32;35519;-82
2022/02/01 03:12:12;;;;;;;;;;;;;;;5.99;59.78;98904.13;4399888;32;34375;-82
2022/02/01 03:15:08;;;;;;;;;;;;;;;5.89;60.22;98908.50;4402292;32;32062;-81
2022/02/01 03:20:23;;;;;;;;;;;;;;;6.11;59.73;98904.81;4424802;32;34111;-81
2022/02/01 03:22:51;;;;;;;;;;;;;;;6.00;59.89;98908.41;4412018;32;33931;-81
2022/02/01 03:25:19;;;;;;;;;;;;;;;5.94;60.18;98906.31;4425386;32;32755;-81
2022/02/01 03:27:47;;;;;;;;;;;;;;;5.96;59.97;98911.47;4412559;32;33756;-81
2022/02/01 03:30:15;;;;;;;;;;;;;;;6.07;59.38;98921.91;4400095;32;34690;-81
2022/02/01 03:32:43;;;;;;;;;;;;;;;6.01;59.54;98912.72;4393436;32;34207;-81
2022/02/01 03:35:11;;;;;;;;;;;;;;;6.06;59.39;98918.41;4399602;32;33360;-81
2022/02/01 03:38:01;;;;;;;;;;;;;;;6.08;59.33;98919.09;4427500;32;34170;-81
2022/02/01 03:40:29;;;;;;;;;;;;;;;6.32;58.55;98924.81;4405192;32;34045;-81
2022/02/01 03:42:56;;;;;;;;;;;;;;;6.26;58.69;98924.56;4413339;32;33516;-81
2022/02/01 03:45:24;;;;;;;;;;;;;;;6.31;58.48;98919.69;4414298;32;32047;-82
2022/02/01 03:47:53;;;;;;;;;;;;;;;6.28;58.69;98927.88;4424625;32;33374;-81
2022/02/01 03:50:21;;;;;;;;;;;;;;;6.06;59.19;98928.97;4401427;32;35445;-81
2022/02/01 03:52:50;;;;;;;;;;;;;;;6.14;59.11;98921.19;4412079;32;34755;-81
2022/02/01 03:55:18;;;;;;;;;;;;;;;6.32;58.29;98922.19;4424880;32;33767;-81
2022/02/01 03:57:46;;;;;;;;;;;;;;;6.38;58.25;98926.06;4412618;32;33645;-81
2022/02/01 04:00:14;;;;;;;;;;;;;;;6.34;58.17;98928.16;4416077;32;35957;-81
2022/02/01 04:02:42;;;;;;;;;;;;;;;6.10;58.72;98935.66;4411015;32;34863;-81
2022/02/01 04:05:12;;;;;;;;;;;;;;;6.17;58.57;98934.13;4424796;32;33006;-81
2022/02/01 04:07:46;;;;;;;;;;;;;;;6.22;58.33;98937.19;4411606;32;34596;-82
2022/02/01 04:10:15;;;;;;;;;;;;;;;6.22;58.42;98950.41;4389293;32;34263;-81
2022/02/01 04:12:44;;;;;;;;;;;;;;;6.32;58.19;98955.69;4413390;32;34372;-81
2022/02/01 04:15:16;;;;;;;;;;;;;;;6.20;58.85;98962.06;4387811;32;32998;-82
2022/02/01 04:17:44;;;;;;;;;;;;;;;6.24;58.91;98963.47;4424666;32;34153;-81
2022/02/01 04:20:13;;;;;;;;;;;;;;;6.43;58.31;98963.50;4401510;32;34022;-82
2022/02/01 04:22:45;;;;;;;;;;;;;;;6.35;58.71;98960.72;4414160;32;35561;-81
2022/02/01 04:25:12;;;;;;;;;;;;;;;6.47;58.39;98959.59;4414357;32;32652;-81
2022/02/01 04:27:42;;;;;;;;;;;;;;;6.33;58.76;98957.37;4414030;32;34180;-81
2022/02/01 04:30:15;;;;;;;;;;;;;;;6.33;58.88;98960.00;4424243;32;35135;-79
2022/02/01 04:32:44;;;;;;;;;;;;;;;6.29;59.09;98956.81;4412116;32;33955;-79
2022/02/01 04:35:21;;;;;;;;;;;;;;;6.02;60.01;98956.63;4412174;32;32051;-79
2022/02/01 04:37:54;;;;;;;;;;;;;;;6.10;59.90;98964.72;4411190;32;33451;-79
2022/02/01 04:40:24;;;;;;;;;;;;;;;5.94;60.67;98982.88;4389539;32;34318;-79
2022/02/01 04:42:52;;;;;;;;;;;;;;;5.64;61.56;98976.75;4427041;32;33066;-79
2022/02/01 04:45:21;;;;;;;;;;;;;;;6.26;59.62;98985.31;4412144;32;33281;-79
2022/02/01 04:47:53;;;;;;;;;;;;;;;6.14;60.22;98989.84;4401516;32;32660;-79
2022/02/01 04:50:26;;;;;;;;;;;;;;;6.12;59.95;98993.59;4411211;32;34449;-79
2022/02/01 04:52:56;;;;;;;;;;;;;;;6.26;59.51;98995.87;4416951;32;34448;-79
2022/02/01 04:55:27;;;;;;;;;;;;;;;6.15;59.84;98999.44;4423686;32;32430;-79
2022/02/01 04:57:55;;;;;;;;;;;;;;;6.03;59.70;99005.81;4419586;32;34535;-78
2022/02/01 05:00:26;;;;;;;;;;;;;;;5.85;60.41;99015.34;4403992;32;35295;-79
2022/02/01 05:02:57;;;;;;;;;;;;;;;6.00;60.13;99016.66;4398708;32;33964;-78
2022/02/01 05:05:34;;;;;;;;;;;;;;;5.63;61.17;99015.53;4411549;32;32521;-78
2022/02/01 05:08:03;;;;;;;;;;;;;;;5.80;60.43;99022.00;4424080;32;34089;-79
2022/02/01 05:10:33;;;;;;;;;;;;;;;5.75;60.54;99022.38;4411441;32;37128;-79
2022/02/01 05:13:43;;;;;;;;;;;;;;;5.63;60.64;99018.16;4423691;32;34754;-79
2022/02/01 05:16:03;;;;;;;;;;;;;;;5.42;61.07;99027.06;4403636;32;33611;-79
2022/02/01 05:18:39;;;;;;;;;;;;;;;5.10;62.14;99026.31;4420510;32;34686;-79
2022/02/01 05:21:20;;;;;;;;;;;;;;;5.26;61.54;99031.97;4439547;32;33920;-79
2022/02/01 05:23:58;;;;;;;;;;;;;;;5.33;61.36;99032.28;4414168;32;34064;-81
2022/02/01 05:26:45;;;;;;;;;;;;;;;5.24;61.60;99043.59;4406131;32;33074;-81
2022/02/01 05:29:19;;;;;;;;;;;;;;;5.66;60.20;99051.34;4412762;32;33464;-82
2022/02/01 05:31:51;;;;;;;;;;;;;;;5.83;59.73;99046.31;4403502;32;34270;-81
2022/02/01 05:34:20;;;;;;;;;;;;;;;5.90;59.26;99047.47;4415775;32;33272;-81
2022/02/01 05:36:50;;;;;;;;;;;;;;;5.78;59.64;99056.41;4401304;32;32337;-81
2022/02/01 05:39:19;;;;;;;;;;;;;;;5.63;59.82;99062.16;4401335;32;32452;-81
2022/02/01 05:42:00;;;;;;;;;;;;;;;5.82;59.35;99073.69;4406986;32;35185;-81
2022/02/01 05:44:48;;;;;;;;;;;;;;;5.93;59.14;99078.87;4404895;32;35256;-81
2022/02/01 05:47:24;;;;;;;;;;;;;;;5.83;59.36;99080.63;4399317;32;31974;-81
2022/02/01 05:49:51;;;;;;;;;;;;;;;5.81;59.34;99087.88;4403195;32;34105;-81
2022/02/01 05:52:20;;;;;;;;;;;;;;;5.85;59.21;99096.31;4413130;32;36818;-81
2022/02/01 05:55:01;;;;;;;;;;;;;;;5.72;59.79;99109.72;4423999;32;33938;-82
2022/02/01 05:57:49;;;;;;;;;;;;;;;5.76;59.79;99121.69;4410434;32;33810;-81
2022/02/01 06:00:20;;;;;;;;;;;;;;;5.81;59.85;99124.81;4422615;32;34665;-81
2022/02/01 06:02:52;;;;;;;;;;;;;;;5.90;59.61;99126.66;4415249;32;35203;-81
2022/02/01 06:05:19;;;;;;;;;;;;;;;5.82;59.86;99128.28;4402884;32;33302;-82
2022/02/01 06:07:47;;;;;;;;;;;;;;;5.77;60.26;99130.44;4413951;32;34450;-81
2022/02/01 06:10:16;;;;;;;;;;;;;;;5.76;60.28;99129.59;4403283;32;32705;-83
2022/02/01 06:13:10;;;;;;;;;;;;;;;5.70;60.61;99126.66;4401371;32;35395;-81
2022/02/01 06:15:39;;;;;;;;;;;;;;;5.88;59.93;99151.50;4424568;32;35783;-82
2022/02/01 06:18:07;;;;;;;;;;;;;;;5.63;60.54;99152.72;4412994;32;32719;-82
2022/02/01 06:20:35;;;;;;;;;;;;;;;5.69;60.69;99154.00;4400718;32;33957;-81
2022/02/01 06:23:10;;;;;;;;;;;;;;;5.76;60.42;99156.00;4414406;32;34889;-81
2022/02/01 06:28:24;;;;;;;;;;;;;;;5.66;60.95;99165.66;4393404;32;31703;-81
2022/02/01 06:30:55;;;;;;;;;;;;;;;5.63;60.78;99179.09;4415727;32;33469;-81
2022/02/01 06:33:24;;;;;;;;;;;;;;;5.75;60.69;99180.72;4399649;32;34665;-80
2022/02/01 06:35:52;;;;;;;;;;;;;;;5.73;60.81;99184.44;4415090;32;32868;-81
2022/02/01 06:38:20;;;;;;;;;;;;;;;5.70;60.96;99184.69;4401199;32;32134;-80
2022/02/01 06:40:49;;;;;;;;;;;;;;;5.69;61.10;99197.03;4413250;32;34635;-80
2022/02/01 06:43:17;;;;;;;;;;;;;;;5.99;60.22;99197.16;4414764;32;36439;-80
2022/02/01 06:45:45;;;;;;;;;;;;;;;5.84;60.62;99194.94;4412598;32;33058;-81
2022/02/01 06:48:13;;;;;;;;;;;;;;;5.86;60.65;99198.31;4415123;32;32371;-81
2022/02/01 06:50:45;;;;;;;;;;;;;;;5.65;61.37;99205.34;4412642;32;32715;-80
2022/02/01 06:53:15;;;;;;;;;;;;;;;5.34;62.65;99215.91;4425568;32;34805;-81
2022/02/01 06:55:55;;;;;;;;;;;;;;;5.36;62.46;99227.19;4425322;32;35111;-81
2022/02/01 06:58:24;;;;;;;;;;;;;;;4.88;63.97;99249.59;4413461;32;33259;-80
2022/02/01 07:00:51;;;;;;;;;;;;;;;4.95;64.18;99253.41;4412474;32;32830;-80
2022/02/01 07:03:21;;;;;;;;;;;;;;;4.92;64.32;99253.69;4427145;32;35339;-80
2022/02/01 07:05:49;;;;;;;;;;;;;;;5.08;63.95;99262.03;4420949;32;33405;-81
2022/02/01 07:08:20;;;;;;;;;;;;;;;4.90;64.58;99264.31;4403394;32;32065;-80
2022/02/01 07:10:51;;;;;;;;;;;;;;;5.23;63.47;99253.72;4415392;32;34352;-80
2022/02/01 07:13:21;;;;;;;;;;;;;;;5.12;63.39;99269.59;4397761;32;33560;-80
2022/02/01 07:16:09;;;;;;;;;;;;;;;5.03;63.78;99266.84;4412568;32;37693;-81
2022/02/01 07:18:37;;;;;;;;;;;;;;;5.43;62.43;99266.94;4425188;32;33496;-80
2022/02/01 07:21:05;;;;;;;;;;;;;;;5.19;63.21;99283.94;4424683;32;32893;-81
2022/02/01 07:23:35;;;;;;;;;;;;;;;4.97;63.88;99283.97;4397550;32;35039;-81
2022/02/01 07:26:04;;;;;;;;;;;;;;;5.13;63.66;99296.75;4397737;32;34449;-80
2022/02/01 07:28:37;;;;;;;;;;;;;;;4.93;64.26;99297.50;4400899;32;32721;-80
2022/02/01 07:31:09;;;;;;;;;;;;;;;4.73;65.09;99301.69;4402165;32;34493;-81
2022/02/01 07:33:45;;;;;;;;;;;;;;;5.09;63.84;99313.81;4414444;32;33881;-81
2022/02/01 07:36:17;;;;;;;;;;;;;;;5.06;64.00;99306.97;4409855;32;34316;-81
2022/02/01 07:38:44;;;;;;;;;;;;;;;5.07;64.05;99295.47;4387424;32;33465;-81
2022/02/01 07:41:12;;;;;;;;;;;;;;;4.99;64.12;99300.50;4410029;32;33930;-80
2022/02/01 07:43:40;;;;;;;;;;;;;;;5.07;64.08;99302.56;4399512;32;35716;-81
2022/02/01 07:46:13;;;;;;;;;;;;;;;5.02;64.21;99307.34;4424456;32;34120;-81
2022/02/01 07:48:42;;;;;;;;;;;;;;;5.08;63.99;99317.41;4403333;32;33649;-81
2022/02/01 07:51:13;;;;;;;;;;;;;;;4.71;64.98;99315.97;4397395;32;33959;-81
2022/02/01 07:53:42;;;;;;;;;;;;;;;4.80;64.54;99316.09;4397047;32;34580;-81
2022/02/01 07:56:09;;;;;;;;;;;;;;;5.05;63.59;99318.47;4372526;32;34096;-81
2022/02/01 07:58:37;;;;;;;;;;;;;;;4.95;63.58;99324.59;4411815;32;33009;-80
2022/02/01 08:01:06;;;;;;;;;;;;;;;5.09;62.93;99334.91;4398488;32;33358;-80
2022/02/01 08:03:34;;;;;;;;;;;;;;;5.12;62.27;99332.84;4396963;32;34668;-80
2022/02/01 08:06:02;;;;;;;;;;;;;;;5.40;61.17;99336.75;4395229;32;35253;-81
2022/02/01 08:08:30;;;;;;;;;;;;;;;5.36;61.02;99336.16;4403633;32;34621;-80
2022/02/01 08:11:02;;;;;;;;;;;;;;;5.00;62.37;99341.72;4404422;32;33487;-80
2022/02/01 08:14:33;;;;;;;;;;;;;;;4.93;62.24;99344.97;4402629;32;34603;-80
2022/02/01 08:19:15;;;;;;;;;;;;;;;5.47;60.74;99355.44;4411689;32;33350;-80
2022/02/01 08:22:07;;;;;;;;;;;;;;;4.60;62.96;99372.12;4407246;32;33719;-81
2022/02/01 08:24:35;;;;;;;;;;;;;;;4.82;62.38;99380.03;4396950;32;35201;-80
2022/02/01 08:27:03;;;;;;;;;;;;;;;4.82;62.99;99379.22;4386351;32;34202;-80
2022/02/01 08:29:32;;;;;;;;;;;;;;;4.92;62.86;99388.09;4409317;32;32367;-81
2022/02/01 08:32:00;;;;;;;;;;;;;;;5.19;62.25;99385.94;4401284;32;32881;-80
2022/02/01 08:34:57;;;;;;;;;;;;;;;5.04;62.66;99397.66;4430902;32;35683;-82
2022/02/01 08:37:25;;;;;;;;;;;;;;;5.03;62.52;99410.03;4398585;32;34756;-80
2022/02/01 08:39:53;;;;;;;;;;;;;;;5.27;62.11;99407.28;4421602;32;32557;-80
2022/02/01 08:42:21;;;;;;;;;;;;;;;5.43;61.08;99403.28;4407503;32;33817;-80
2022/02/01 08:44:49;;;;;;;;;;;;;;;5.51;60.16;99409.62;4395797;32;34618;-80
2022/02/01 08:47:17;;;;;;;;;;;;;;;5.43;59.92;99418.28;4411207;32;34647;-81
2022/02/01 08:49:45;;;;;;;;;;;;;;;5.56;59.68;99417.19;4399006;32;32824;-81
2022/02/01 08:52:23;;;;;;;;;;;;;;;5.87;59.17;99411.16;4388116;32;32906;-81
2022/02/01 08:54:55;;;;;;;;;;;;;;;5.91;58.38;99417.88;4384475;32;35218;-81
2022/02/01 08:57:29;;;;;;;;;;;;;;;6.47;56.94;99414.91;4386784;32;34461;-80
2022/02/01 09:00:04;;;;;;;;;;;;;;;6.36;55.92;99427.31;4424298;32;33267;-81
2022/02/01 09:02:32;;;;;;;;;;;;;;;6.67;55.38;99415.84;4390681;32;32794;-80
2022/02/01 09:05:01;;;;;;;;;;;;;;;6.46;55.36;99418.50;4410984;32;34637;-81
2022/02/01 09:07:28;;;;;;;;;;;;;;;6.30;55.39;99427.81;4386198;32;34582;-81
2022/02/01 09:09:56;;;;;;;;;;;;;;;6.00;55.63;99431.19;4413742;32;33367;-80
2022/02/01 09:12:25;;;;;;;;;;;;;;;6.08;55.02;99430.53;4412707;32;32885;-81
2022/02/01 09:14:52;;;;;;;;;;;;;;;6.36;53.85;99427.31;4397701;32;36531;-80
2022/02/01 09:17:42;;;;;;;;;;;;;;;6.08;54.92;99430.53;4397833;32;33640;-80
2022/02/01 09:20:10;;;;;;;;;;;;;;;6.41;53.03;99433.88;4414438;32;33644;-81
2022/02/01 09:22:39;;;;;;;;;;;;;;;6.41;51.87;99433.88;4411769;32;34024;-81
2022/02/01 09:25:10;;;;;;;;;;;;;;;6.46;52.23;99434.34;4405490;32;35769;-81
2022/02/01 09:27:38;;;;;;;;;;;;;;;6.71;52.06;99428.69;4398096;32;33771;-81
2022/02/01 09:30:07;;;;;;;;;;;;;;;6.70;52.01;99439.41;4411317;32;33941;-80
2022/02/01 09:32:56;;;;;;;;;;;;;;;6.30;51.23;99443.66;4401455;32;33834;-81
2022/02/01 09:35:25;;;;;;;;;;;;;;;6.78;49.50;99445.72;4393647;32;33894;-81
2022/02/01 09:37:54;;;;;;;;;;;;;;;6.96;48.57;99436.22;4400102;32;34369;-81
2022/02/01 09:40:46;;;;;;;;;;;;;;;6.69;48.60;99440.34;4399440;32;32871;-81
2022/02/01 09:43:14;;;;;;;;;;;;;;;7.13;47.40;99426.84;4398964;32;32987;-80
2022/02/01 09:46:04;;;;;;;;;;;;;;;7.20;47.52;99433.28;4404683;32;35095;-81
2022/02/01 09:48:46;;;;;;;;;;;;;;;7.30;45.67;99436.81;4408881;32;34437;-80
2022/02/01 09:51:15;;;;;;;;;;;;;;;7.27;45.87;99434.44;4412668;32;31924;-81
2022/02/01 09:53:46;;;;;;;;;;;;;;;7.71;47.03;99444.63;4410355;32;35031;-81
2022/02/01 09:56:15;;;;;;;;;;;;;;;7.55;46.24;99455.72;4397996;32;35272;-81
2022/02/01 09:58:45;;;;;;;;;;;;;;;7.56;44.95;99453.91;4399619;32;34011;-80
2022/02/01 10:01:17;;;;;;;;;;;;;;;7.27;45.02;99447.66;4399865;32;31756;-80
2022/02/01 10:04:07;;;;;;;;;;;;;;;7.25;45.45;99436.34;4387147;32;33425;-80
2022/02/01 10:06:43;;;;;;;;;;;;;;;7.57;43.92;99442.34;4392461;32;34074;-81
2022/02/01 10:09:33;;;;;;;;;;;;;;;8.07;43.47;99451.97;4381810;32;33406;-80
2022/02/01 10:12:00;;;;;;;;;;;;;;;8.31;43.56;99452.47;4387737;32;32750;-80
2022/02/01 10:14:39;;;;;;;;;;;;;;;8.51;43.36;99465.59;4390968;32;33614;-81
2022/02/01 10:17:09;;;;;;;;;;;;;;;8.62;43.07;99457.50;4400768;32;33728;-80
2022/02/01 10:19:45;;;;;;;;;;;;;;;8.66;43.78;99448.25;4404752;32;34935;-80
2022/02/01 10:22:14;;;;;;;;;;;;;;;8.74;42.89;99451.91;4402088;32;33758;-81
2022/02/01 10:24:42;;;;;;;;;;;;;;;8.49;42.42;99449.81;4402814;32;34831;-81
2022/02/01 10:27:15;;;;;;;;;;;;;;;8.60;43.02;99428.44;4414710;32;34670;-80
2022/02/01 10:30:01;;;;;;;;;;;;;;;8.33;43.29;99429.28;4405345;32;34271;-81
2022/02/01 10:32:46;;;;;;;;;;;;;;;8.33;42.87;99437.25;4397724;32;33223;-81
2022/02/01 10:37:57;;;;;;;;;;;;;;;7.89;44.14;99435.91;4411169;32;33823;-81
2022/02/01 10:40:39;;;;;;;;;;;;;;;7.99;45.61;99439.41;4399361;32;34331;-80
2022/02/01 10:43:27;;;;;;;;;;;;;;;8.65;43.68;99443.94;4397768;32;32962;-80
2022/02/01 10:46:01;;;;;;;;;;;;;;;8.52;43.54;99441.56;4397900;32;32709;-80
2022/02/01 10:48:30;;;;;;;;;;;;;;;8.44;42.49;99446.72;4398845;32;34077;-80
2022/02/01 10:51:02;;;;;;;;;;;;;;;8.33;43.47;99445.19;4398730;32;34661;-80
2022/02/01 10:53:30;;;;;;;;;;;;;;;8.41;41.78;99461.25;4409055;32;32871;-80
2022/02/01 10:55:59;;;;;;;;;;;;;;;8.64;41.15;99460.84;4399301;32;32510;-79
2022/02/01 10:58:28;;;;;;;;;;;;;;;8.03;42.15;99474.41;4400496;32;33855;-79
2022/02/01 11:00:58;;;;;;;;;;;;;;;8.09;42.06;99465.94;4403231;32;34369;-79
2022/02/01 11:03:28;;;;;;;;;;;;;;;8.03;42.45;99477.88;4409419;32;34456;-79
2022/02/01 11:05:56;;;;;;;;;;;;;;;8.02;41.30;99457.66;4393814;32;34072;-79
2022/02/01 11:08:26;;;;;;;;;;;;;;;7.64;41.46;99464.69;4387123;32;33927;-79
2022/02/01 11:10:57;;;;;;;;;;;;;;;8.04;41.68;99452.25;4410255;32;34698;-79
2022/02/01 11:13:35;;;;;;;;;;;;;;;7.96;41.56;99460.03;4397316;32;32865;-79
2022/02/01 11:16:06;;;;;;;;;;;;;;;7.78;41.66;99459.00;4386064;32;33838;-79
2022/02/01 11:18:36;;;;;;;;;;;;;;;7.61;42.89;99465.78;4405241;32;34213;-79
2022/02/01 11:21:05;;;;;;;;;;;;;;;7.78;42.77;99459.00;4399255;32;34460;-79
2022/02/01 11:26:28;;;;;;;;;;;;;;;7.94;42.13;99465.44;4397634;32;32917;-81
2022/02/01 11:30:01;;;;;;;;;;;;;;;8.61;41.96;99463.78;4406434;32;35053;-79
2022/02/01 11:31:52;;;;;;;;;;;;;;;8.48;40.68;99460.53;4403834;32;34415;-79
2022/02/01 11:34:30;;;;;;;;;;;;;;;7.88;42.92;99457.22;4409922;32;33962;-79
2022/02/01 11:37:09;;;;;;;;;;;;;;;8.37;42.11;99451.91;4397356;32;34192;-78
2022/02/01 11:39:48;;;;;;;;;;;;;;;8.54;40.21;99452.03;4385217;32;34454;-79
2022/02/01 11:42:17;;;;;;;;;;;;;;;9.08;40.35;99442.47;4407579;32;33320;-79
2022/02/01 11:45:19;;;;;;;;;;;;;;;9.07;39.17;99454.06;4410270;32;32248;-79
2022/02/01 11:47:48;;;;;;;;;;;;;;;8.81;38.65;99454.81;4403033;32;34713;-79
2022/02/01 11:50:47;;;;;;;;;;;;;;;8.81;39.80;99449.53;4397617;32;35025;-79
2022/02/01 11:53:38;;;;;;;;;;;;;;;8.38;41.12;99442.97;4397545;32;34400;-79
2022/02/01 11:56:06;;;;;;;;;;;;;;;7.98;42.02;99448.34;4398827;32;33324;-79
2022/02/01 11:58:45;;;;;;;;;;;;;;;7.79;41.73;99448.28;4397984;32;34431;-79
2022/02/01 12:01:31;;;;;;;;;;;;;;;7.75;42.06;99433.62;4388535;32;35928;-78
2022/02/01 12:04:05;;;;;;;;;;;;;;;8.04;41.16;99452.25;4391739;32;32981;-80
2022/02/01 12:06:38;;;;;;;;;;;;;;;8.58;41.75;99440.16;4393569;32;33406;-80
2022/02/01 12:09:09;;;;;;;;;;;;;;;8.17;41.55;99444.87;4394052;32;33024;-79
2022/02/01 12:11:39;;;;;;;;;;;;;;;7.96;43.54;99442.34;4402790;32;35574;-80
2022/02/01 12:14:09;;;;;;;;;;;;;;;8.20;43.05;99449.94;4404562;32;33274;-80
2022/02/01 12:16:37;;;;;;;;;;;;;;;8.25;42.25;99442.41;4398163;32;33302;-80
2022/02/01 12:19:07;;;;;;;;;;;;;;;8.65;41.60;99447.44;4384025;32;32819;-82
2022/02/01 12:21:44;;;;;;;;;;;;;;;8.47;41.21;99445.63;4383726;32;36211;-80
2022/02/01 12:24:15;;;;;;;;;;;;;;;8.78;41.05;99440.03;4397536;32;34726;-80
2022/02/01 12:26:43;;;;;;;;;;;;;;;9.12;40.58;99449.19;4384425;32;32925;-80
2022/02/01 12:29:12;;;;;;;;;;;;;;;8.91;41.50;99448.50;4384180;32;33457;-80
2022/02/01 12:31:40;;;;;;;;;;;;;;;8.79;40.49;99448.81;4378121;32;35559;-81
2022/02/01 12:34:15;;;;;;;;;;;;;;;8.32;41.43;99452.31;4402563;32;33481;-80
2022/02/01 12:37:03;;;;;;;;;;;;;;;8.23;42.10;99450.50;4375970;32;32123;-80
2022/02/01 12:39:33;;;;;;;;;;;;;;;8.16;42.75;99453.78;4383999;32;34465;-80
2022/02/01 12:42:28;;;;;;;;;;;;;;;7.65;42.90;99447.81;4384096;32;35147;-80
2022/02/01 12:47:45;;;;;;;;;;;;;;;7.88;42.22;99452.78;4373812;32;32409;-80
2022/02/01 12:50:14;;;;;;;;;;;;;;;7.85;42.96;99450.38;4383990;32;34156;-80
2022/02/01 12:52:42;;;;;;;;;;;;;;;7.94;42.27;99448.75;4396092;32;34530;-81
2022/02/01 12:55:12;;;;;;;;;;;;;;;7.96;42.72;99450.28;4397827;32;34704;-79
2022/02/01 12:58:04;;;;;;;;;;;;;;;7.51;43.70;99451.69;4394866;32;32410;-80
2022/02/01 13:00:34;;;;;;;;;;;;;;;7.40;43.78;99445.63;4397766;32;33145;-80
2022/02/01 13:03:06;;;;;;;;;;;;;;;7.52;43.66;99440.12;4383459;32;35739;-80
2022/02/01 13:05:35;;;;;;;;;;;;;;;8.06;42.67;99437.91;4395797;32;35750;-80
2022/02/01 13:08:35;;;;;;;;;;;;;;;7.98;43.80;99440.38;4378572;32;31399;-80
2022/02/01 13:16:42;;;;;;;;;;;;;;;8.77;43.04;99450.75;4392858;32;33354;-80
2022/02/01 13:22:07;;;;;;;;;;;;;;;8.77;43.09;99451.59;4385916;32;33938;-80
2022/02/01 13:24:35;;;;;;;;;;;;;;;9.14;42.80;99441.91;4398771;32;36186;-82
2022/02/01 13:27:15;;;;;;;;;;;;;;;9.18;41.75;99437.97;4395626;32;34670;-80
2022/02/01 13:29:43;;;;;;;;;;;;;;;9.37;41.97;99429.94;4400922;32;33414;-82
2022/02/01 13:32:14;;;;;;;;;;;;;;;9.18;41.92;99432.66;4391736;32;34761;-80
2022/02/01 13:34:42;;;;;;;;;;;;;;;9.98;41.09;99432.84;4405058;32;34095;-81
2022/02/01 13:37:20;;;;;;;;;;;;;;;9.34;41.40;99427.59;4387628;32;35161;-80
2022/02/01 13:39:50;;;;;;;;;;;;;;;9.83;41.13;99442.34;4393308;32;34263;-80
2022/02/01 13:42:19;;;;;;;;;;;;;;;10.22;39.64;99438.47;4388451;32;33184;-81
2022/02/01 13:44:52;;;;;;;;;;;;;;;10.51;38.54;99431.97;4408987;32;36271;-81
2022/02/01 13:47:30;;;;;;;;;;;;;;;10.31;38.35;99429.59;4409289;32;34819;-81
2022/02/01 13:49:58;;;;;;;;;;;;;;;9.92;39.57;99433.47;4397649;32;32116;-80
2022/02/01 13:52:28;;;;;;;;;;;;;;;10.15;39.73;99445.37;4400515;32;34675;-81
2022/02/01 13:54:56;;;;;;;;;;;;;;;10.39;39.54;99446.44;4409679;32;35490;-81
2022/02/01 13:57:26;;;;;;;;;;;;;;;10.25;38.95;99443.50;4382772;32;33301;-81
2022/02/01 14:00:04;;;;;;;;;;;;;;;9.44;40.19;99448.81;4410025;32;32518;-80
2022/02/01 14:02:36;;;;;;;;;;;;;;;10.10;39.13;99448.47;4396990;32;33614;-80
2022/02/01 14:05:17;;;;;;;;;;;;;;;9.83;39.57;99445.00;4415994;32;33993;-80
2022/02/01 14:10:57;;;;;;;;;;;;;;;9.66;39.94;99451.09;4401798;32;31897;-81
2022/02/01 14:13:58;;;;;;;;;;;;;;;9.34;40.74;99446.16;4399955;32;34087;-80
2022/02/01 14:35:57;;;;;;;;;;;;;;;8.86;41.08;99455.22;4402195;32;34079;-80
2022/02/01 14:47:05;;;;;;;;;;;;;;;8.09;42.90;99455.34;4396707;32;33064;-80
2022/02/01 14:49:42;;;;;;;;;;;;;;;8.87;41.70;99444.47;4463844;26;34914;31
2022/02/01 14:52:12;;;;;;;;;;;;;;;8.54;41.22;99434.31;4370620;32;34505;-80
2022/02/01 14:54:51;;;;;;;;;;;;;;;9.15;40.67;99443.56;4377677;32;33568;-80
2022/02/01 15:13:51;;;;;;;;;;;;;;;8.23;42.06;99454.94;4395319;32;34510;-81
2022/02/01 15:16:31;;;;;;;;;;;;;;;7.64;43.11;99460.22;4422042;32;33749;-81
2022/02/01 15:19:00;;;;;;;;;;;;;;;7.81;43.08;99461.41;4386109;32;32590;-81
2022/02/01 15:21:28;;;;;;;;;;;;;;;7.42;44.10;99454.25;4399736;32;34882;-81
2022/02/01 15:23:59;;;;;;;;;;;;;;;7.53;43.43;99448.88;4400217;32;34004;-81
2022/02/01 15:26:28;;;;;;;;;;;;;;;7.69;43.10;99449.22;4406145;32;34202;-81
2022/02/01 15:28:57;;;;;;;;;;;;;;;7.16;43.98;99443.28;4396348;32;35468;-81
2022/02/01 15:31:27;;;;;;;;;;;;;;;7.46;43.36;99451.22;4395898;32;36651;-79
2022/02/01 15:33:58;;;;;;;;;;;;;;;7.06;44.38;99457.41;4383311;32;34573;-81
2022/02/01 15:36:34;;;;;;;;;;;;;;;7.34;43.74;99439.06;4396067;32;33131;-81
2022/02/01 15:58:26;;;;;;;;;;;;;;;6.36;45.92;99477.50;4397368;32;33952;-78
2022/02/01 16:00:57;;;;;;;;;;;;;;;6.53;45.44;99464.56;4396561;32;34010;-78
2022/02/01 16:03:29;;;;;;;;;;;;;;;6.42;45.53;99482.28;4407032;32;35891;-79
2022/02/01 16:05:58;;;;;;;;;;;;;;;6.54;45.31;99468.06;4409307;32;33773;-78